New River, AZ (85087)

1:52 AM MST on September 03, 2014 (GMT -0700)
Outlets at Anthem | Change Station
CLOSE
Current Station
Personal Weather Station
Location: Anthem, AZ
Elevation: 1906 ft
Nearby Weather Stations

Elev 1906 ft 33.87 °N, 112.15 °W | Updated 6 minutes ago

Clear
Clear
82.0 °F
Feels Like 80 °F
N
9.9
Wind Variable Wind from NNW

Today
High -- | Low -- °F
--% Chance of Precip.
Yesterday
High -- | Low -- °F
Precip. -- in
6:03 AM 6:51 PM
First Quarter, 60% visible
Pressure 29.66 in
Visibility 10.0 miles
Clouds Clear
Heat Index 80 °F
Dew Point 45 °F
Humidity 27%
Rainfall 0.00 in
Snow Depth Not available.
UV 0 out of 12
Pollen 6.50 out of 12
PM2.5 Good
Flu Activity Not available.
METAR KDVT 030753Z AUTO 35003KT 10SM CLR 29/06 A2974 RMK AO2 SLP043 T02890056

More Conditions Fewer Conditions

Pressure 29.66 in
Visibility 10.0 miles
Clouds Clear
Heat Index 80 °F
Dew Point 45 °F
Humidity 27%
Rainfall 0.00 in
Snow Depth Not available.
UV 0 out of 12
Pollen 6.50 out of 12
PM2.5 Good
Flu Activity Not available.
METAR KDVT 030753Z AUTO 35003KT 10SM CLR 29/06 A2974 RMK AO2 SLP043 T02890056

More Conditions Fewer Conditions

10-Day Weather Forecast

Almanac

Astronomy

Sep. 03, 2014 Rise Set
Actual Time 6:03 AM MST 6:51 PM MST
Civil Twilight 5:38 AM MST 7:16 PM MST
Nautical Twilight 5:08 AM MST 7:46 PM MST
Astronomical Twilight 4:37 AM MST 8:17 PM MST
Moon 2:28 PM MST 12:09 AM MST
Length of Visible Light 13h 38m
Length of Day
12h 47m
Tomorrow will be 2m 2s shorter.
First Quarter, 60% of the Moon is Illuminated
Today
First Quarter
Sep 8
Full
Sep 15
Last Quarter
Sep 24
New
Oct 1
First Quarter

Today's Extremes

State Highs State Lows

Community

WunderPhotos

Upload Photos

1,749,902 photos uploaded!

Nearby

Air Quality

  Air Quality AQ Index Pollutant
Yesterday Moderate
OZONE
Yesterday Good
PM10
Current Good
PM2.5
Wednesday Moderate
OZONE
Wednesday Moderate
PM10
Wednesday Good
CO
Thursday Moderate
PM2.5
Thursday Moderate
OZONE
Thursday Good
CO

Snow Depth

Station Depth Elevation
Workman Creek 2 in 6900 ft
White Horse Lake 0 in 7180 ft
Snowslide Canyon 0 in 9730 ft
Wildcat 0 in 7850 ft
Maverick Fork 0 in 9200 ft

Earthquake Activity

City Distance Mag. Time & Date
No recent earthquake activity has been reported nearby.
Minimum magnitude displayed is 2.5.

Coastal Water Temperatures

Place Temperature
No Stations Reporting

Nearby Weather Stations